createdAt,value
2023-04-28T00:00:46.772Z,8
2023-04-28T00:01:46.791Z,8
2023-04-28T00:02:46.854Z,5
2023-04-28T00:03:46.889Z,6
2023-04-28T00:04:46.947Z,6
2023-04-28T00:05:46.833Z,7
2023-04-28T00:06:46.786Z,5
2023-04-28T00:07:46.978Z,5
2023-04-28T00:08:46.775Z,7
2023-04-28T00:09:46.784Z,7
2023-04-28T00:10:46.816Z,7
2023-04-28T00:11:46.799Z,7
2023-04-28T00:12:46.791Z,9
2023-04-28T00:13:46.799Z,9
2023-04-28T00:14:46.779Z,9
2023-04-28T00:15:46.810Z,7
2023-04-28T00:16:46.922Z,7
2023-04-28T00:17:46.843Z,6
2023-04-28T00:18:46.812Z,6
2023-04-28T00:19:46.806Z,7
2023-04-28T00:20:46.812Z,9
2023-04-28T00:21:46.796Z,6
2023-04-28T00:22:46.822Z,6
2023-04-28T00:23:46.792Z,6
2023-04-28T00:24:46.812Z,5
2023-04-28T00:25:46.768Z,7
2023-04-28T00:26:46.782Z,7
2023-04-28T00:27:46.801Z,7
2023-04-28T00:28:46.791Z,5
2023-04-28T00:29:46.770Z,5
2023-04-28T00:30:46.791Z,7
2023-04-28T00:31:46.849Z,8
2023-04-28T00:32:46.847Z,6
2023-04-28T00:33:46.781Z,9
2023-04-28T00:34:46.796Z,6
2023-04-28T00:35:46.777Z,6
2023-04-28T00:36:46.778Z,7
2023-04-28T00:37:46.794Z,8
2023-04-28T00:38:46.796Z,8
2023-04-28T00:39:46.789Z,6
2023-04-28T00:41:46.795Z,5
2023-04-28T00:42:46.803Z,7
2023-04-28T00:44:46.779Z,9
2023-04-28T00:45:46.845Z,5
2023-04-28T00:46:46.808Z,7
2023-04-28T00:47:46.799Z,6
2023-04-28T00:48:46.793Z,7
2023-04-28T00:49:46.793Z,7
2023-04-28T00:50:46.787Z,7
2023-04-28T00:51:46.777Z,8
2023-04-28T00:52:46.812Z,6
2023-04-28T00:53:46.785Z,8
2023-04-28T00:54:46.801Z,9
2023-04-28T00:55:46.777Z,8
2023-04-28T00:56:46.784Z,6
2023-04-28T00:57:46.791Z,7
2023-04-28T00:58:46.817Z,6
2023-04-28T00:59:46.788Z,6
2023-04-28T01:00:46.870Z,10
2023-04-28T01:01:46.932Z,6
2023-04-28T01:02:46.917Z,6
2023-04-28T01:03:46.917Z,6
2023-04-28T01:04:46.848Z,5
2023-04-28T01:05:46.799Z,7
2023-04-28T01:06:46.786Z,7
2023-04-28T01:07:46.820Z,7
2023-04-28T01:08:46.794Z,7
2023-04-28T01:09:46.806Z,6
2023-04-28T01:10:46.795Z,6
2023-04-28T01:11:46.793Z,5
2023-04-28T01:12:46.799Z,7
2023-04-28T01:13:46.794Z,9
2023-04-28T01:14:46.778Z,6
2023-04-28T01:15:46.795Z,7
2023-04-28T01:16:46.805Z,6
2023-04-28T01:17:46.829Z,6
2023-04-28T01:18:46.824Z,5
2023-04-28T01:19:46.781Z,8
2023-04-28T01:20:46.792Z,5
2023-04-28T01:21:46.801Z,6
2023-04-28T01:22:46.832Z,8
2023-04-28T01:23:46.796Z,7
2023-04-28T01:24:46.777Z,6
2023-04-28T01:25:46.791Z,6
2023-04-28T01:26:46.788Z,7
2023-04-28T01:27:46.793Z,6
2023-04-28T01:29:46.821Z,7
2023-04-28T01:30:46.805Z,6
2023-04-28T01:31:46.882Z,5
2023-04-28T01:32:46.814Z,5
2023-04-28T01:33:46.810Z,7
2023-04-28T01:34:46.794Z,6
2023-04-28T01:35:46.778Z,8
2023-04-28T01:36:46.777Z,5
2023-04-28T01:37:46.815Z,6
2023-04-28T01:38:46.785Z,9
2023-04-28T01:39:46.788Z,7
2023-04-28T01:40:46.802Z,6
2023-04-28T01:41:46.797Z,6
2023-04-28T01:42:46.786Z,9
2023-04-28T01:43:46.807Z,7
2023-04-28T01:44:46.798Z,6
2023-04-28T01:45:46.811Z,7
2023-04-28T01:46:46.808Z,8
2023-04-28T01:47:46.817Z,7
2023-04-28T01:48:46.787Z,8
2023-04-28T01:49:46.806Z,4
2023-04-28T01:50:46.789Z,7
2023-04-28T01:51:46.782Z,5
2023-04-28T01:52:46.823Z,7
2023-04-28T01:53:46.805Z,8
2023-04-28T01:54:46.776Z,6
2023-04-28T01:55:46.785Z,7
2023-04-28T01:56:46.801Z,6
2023-04-28T01:57:49.128Z,6
2023-04-28T01:58:46.798Z,6
2023-04-28T01:59:46.828Z,7
2023-04-28T02:00:46.819Z,6
2023-04-28T02:01:46.905Z,7
2023-04-28T02:02:46.907Z,7
2023-04-28T02:03:47.061Z,6
2023-04-28T02:04:46.900Z,6
2023-04-28T02:05:46.784Z,6
2023-04-28T02:06:46.802Z,6
2023-04-28T02:07:46.936Z,6
2023-04-28T02:08:46.797Z,6
2023-04-28T02:09:46.784Z,7
2023-04-28T02:10:46.797Z,7
2023-04-28T02:11:46.792Z,7
2023-04-28T02:12:46.799Z,7
2023-04-28T02:13:46.823Z,5
2023-04-28T02:14:46.780Z,4
2023-04-28T02:15:46.802Z,6
2023-04-28T02:16:46.813Z,5
2023-04-28T02:17:46.840Z,7
2023-04-28T02:18:46.794Z,7
2023-04-28T02:19:46.789Z,6
2023-04-28T02:20:46.779Z,5
2023-04-28T02:21:46.804Z,9
2023-04-28T02:22:46.829Z,7
2023-04-28T02:23:46.781Z,6
2023-04-28T02:24:46.789Z,5
2023-04-28T02:25:46.808Z,5
2023-04-28T02:26:46.789Z,7
2023-04-28T02:27:46.814Z,6
2023-04-28T02:28:46.875Z,7
2023-04-28T02:29:46.807Z,6
2023-04-28T02:30:46.796Z,9
2023-04-28T02:31:46.829Z,8
2023-04-28T02:32:46.851Z,7
2023-04-28T02:33:46.787Z,7
2023-04-28T02:34:46.776Z,8
2023-04-28T02:35:46.804Z,6
2023-04-28T02:36:46.801Z,5
2023-04-28T02:37:46.812Z,6
2023-04-28T02:38:46.807Z,6
2023-04-28T02:39:46.799Z,7
2023-04-28T02:40:46.819Z,8
2023-04-28T02:41:46.805Z,7
2023-04-28T02:42:46.799Z,5
2023-04-28T02:43:46.817Z,7
2023-04-28T02:44:46.788Z,6
2023-04-28T02:45:46.799Z,7
2023-04-28T02:46:46.827Z,6
2023-04-28T02:47:46.843Z,6
2023-04-28T02:48:46.808Z,5
2023-04-28T02:49:46.794Z,7
2023-04-28T02:50:46.799Z,7
2023-04-28T02:51:46.803Z,8
2023-04-28T02:52:48.926Z,9
2023-04-28T02:53:46.790Z,6
2023-04-28T02:54:46.794Z,7
2023-04-28T02:55:46.850Z,8
2023-04-28T02:56:46.793Z,6
2023-04-28T02:59:46.811Z,6
2023-04-28T03:00:46.841Z,10
2023-04-28T03:01:46.860Z,8
2023-04-28T03:02:46.965Z,6
2023-04-28T03:03:46.958Z,7
2023-04-28T03:04:46.796Z,7
2023-04-28T03:05:46.831Z,6
2023-04-28T03:06:46.804Z,10
2023-04-28T03:07:46.805Z,7
2023-04-28T03:08:46.780Z,7
2023-04-28T03:09:46.809Z,8
2023-04-28T03:10:46.823Z,8
2023-04-28T03:11:46.791Z,7
2023-04-28T03:12:46.808Z,8
2023-04-28T03:13:46.794Z,8
2023-04-28T03:14:46.812Z,7
2023-04-28T03:15:46.802Z,7
2023-04-28T03:16:46.853Z,6
2023-04-28T03:17:46.847Z,6
2023-04-28T03:19:46.787Z,6
2023-04-28T03:20:46.800Z,7
2023-04-28T03:21:46.820Z,8
2023-04-28T03:22:46.855Z,8
2023-04-28T03:23:46.795Z,7
2023-04-28T03:24:46.790Z,7
2023-04-28T03:25:46.821Z,7
2023-04-28T03:26:46.831Z,9
2023-04-28T03:27:46.796Z,6
2023-04-28T03:28:46.795Z,8
2023-04-28T03:29:46.798Z,8
2023-04-28T03:30:46.818Z,8
2023-04-28T03:31:46.809Z,11
2023-04-28T03:32:46.850Z,7
2023-04-28T03:33:46.800Z,9
2023-04-28T03:34:46.794Z,8
2023-04-28T03:35:46.791Z,8
2023-04-28T03:36:46.785Z,8
2023-04-28T03:37:46.845Z,8
2023-04-28T03:38:46.796Z,8
2023-04-28T03:39:46.787Z,8
2023-04-28T03:40:46.788Z,6
2023-04-28T03:41:46.800Z,6
2023-04-28T03:42:46.824Z,9
2023-04-28T03:43:46.793Z,9
2023-04-28T03:44:46.840Z,8
2023-04-28T03:45:46.842Z,9
2023-04-28T03:46:46.841Z,9
2023-04-28T03:47:46.800Z,8
2023-04-28T03:48:46.814Z,8
2023-04-28T03:49:46.797Z,9
2023-04-28T03:50:46.891Z,9
2023-04-28T03:51:46.801Z,9
2023-04-28T03:52:46.819Z,10
2023-04-28T03:53:46.808Z,7
2023-04-28T03:54:46.801Z,8
2023-04-28T03:55:46.791Z,10
2023-04-28T03:56:46.804Z,8
2023-04-28T03:57:46.802Z,10
2023-04-28T03:58:46.784Z,7
2023-04-28T03:59:46.802Z,10
2023-04-28T04:00:46.818Z,8
2023-04-28T04:01:46.817Z,8
2023-04-28T04:02:46.885Z,8
2023-04-28T04:03:47.039Z,17
2023-04-28T04:04:47.133Z,7
2023-04-28T04:05:46.839Z,9
2023-04-28T04:06:46.797Z,8
2023-04-28T04:07:46.825Z,9
2023-04-28T04:08:46.807Z,10
2023-04-28T04:09:46.818Z,7
2023-04-28T04:10:46.806Z,10
2023-04-28T04:11:46.800Z,9
2023-04-28T04:12:46.812Z,8
2023-04-28T04:13:46.830Z,8
2023-04-28T04:14:46.796Z,8
2023-04-28T04:15:46.832Z,9
2023-04-28T04:16:46.837Z,10
2023-04-28T04:17:46.869Z,11
2023-04-28T04:18:46.787Z,9
2023-04-28T04:19:46.795Z,8
2023-04-28T04:20:46.802Z,9
2023-04-28T04:21:47.026Z,9
2023-04-28T04:22:46.808Z,9
2023-04-28T04:23:46.832Z,11
2023-04-28T04:24:46.816Z,7
2023-04-28T04:25:46.795Z,9
2023-04-28T04:26:46.784Z,8
2023-04-28T04:27:46.794Z,8
2023-04-28T04:28:46.812Z,8
2023-04-28T04:29:46.795Z,11
2023-04-28T04:30:46.858Z,11
2023-04-28T04:31:46.839Z,12
2023-04-28T04:32:46.821Z,9
2023-04-28T04:33:46.797Z,10
2023-04-28T04:34:46.806Z,9
2023-04-28T04:35:46.809Z,9
2023-04-28T04:37:46.813Z,11
2023-04-28T04:38:46.822Z,8
2023-04-28T04:39:46.792Z,10
2023-04-28T04:40:46.813Z,9
2023-04-28T04:41:46.812Z,10
2023-04-28T04:42:46.782Z,9
2023-04-28T04:43:46.793Z,10
2023-04-28T04:44:46.953Z,10
2023-04-28T04:45:46.841Z,10
2023-04-28T04:46:46.832Z,8
2023-04-28T04:47:46.845Z,8
2023-04-28T04:48:46.974Z,11
2023-04-28T04:49:46.820Z,9
2023-04-28T04:50:46.807Z,9
2023-04-28T04:51:46.815Z,8
2023-04-28T04:52:46.834Z,8
2023-04-28T04:54:46.801Z,10
2023-04-28T04:55:46.817Z,10
2023-04-28T04:56:46.812Z,13
2023-04-28T04:57:46.801Z,10
2023-04-28T04:58:46.824Z,8
2023-04-28T04:59:46.809Z,9
2023-04-28T05:00:46.824Z,10
2023-04-28T05:01:46.806Z,11
2023-04-28T05:02:47.158Z,10
2023-04-28T05:04:46.868Z,9
2023-04-28T05:05:46.794Z,8
2023-04-28T05:06:46.805Z,9
2023-04-28T05:07:46.997Z,8
2023-04-28T05:08:46.835Z,9
2023-04-28T05:09:46.812Z,10
2023-04-28T05:10:46.835Z,8
2023-04-28T05:11:46.807Z,9
2023-04-28T05:12:48.940Z,8
2023-04-28T05:13:46.804Z,8
2023-04-28T05:14:46.813Z,8
2023-04-28T05:15:46.911Z,8
2023-04-28T05:16:46.871Z,9
2023-04-28T05:17:46.851Z,11
2023-04-28T05:18:46.805Z,9
2023-04-28T05:19:46.805Z,9
2023-04-28T05:20:46.818Z,8
2023-04-28T05:21:46.815Z,9
2023-04-28T05:22:46.818Z,9
2023-04-28T05:23:46.807Z,8
2023-04-28T05:24:46.820Z,8
2023-04-28T05:25:46.833Z,8
2023-04-28T05:26:46.797Z,9
2023-04-28T05:27:46.815Z,8
2023-04-28T05:28:46.815Z,10
2023-04-28T05:29:46.830Z,10
2023-04-28T05:30:46.815Z,9
2023-04-28T05:31:46.839Z,10
2023-04-28T05:32:46.894Z,10
2023-04-28T05:33:46.812Z,7
2023-04-28T05:34:46.796Z,8
2023-04-28T05:35:46.813Z,9
2023-04-28T05:36:46.803Z,7
2023-04-28T05:37:46.830Z,9
2023-04-28T05:38:46.817Z,9
2023-04-28T05:39:46.811Z,8
2023-04-28T05:40:46.810Z,8
2023-04-28T05:41:46.812Z,9
2023-04-28T05:42:46.835Z,8
2023-04-28T05:43:46.784Z,9
2023-04-28T05:44:46.814Z,9
2023-04-28T05:45:46.871Z,7
2023-04-28T05:46:46.805Z,8
2023-04-28T05:47:46.804Z,9
2023-04-28T05:48:46.809Z,7
2023-04-28T05:49:46.820Z,8
2023-04-28T05:50:46.781Z,9
2023-04-28T05:51:46.803Z,9
2023-04-28T05:52:46.822Z,11
2023-04-28T05:53:46.804Z,12
2023-04-28T05:54:46.802Z,8
2023-04-28T05:55:46.809Z,10
2023-04-28T05:56:46.818Z,23
2023-04-28T05:57:52.968Z,20
2023-04-28T05:58:46.795Z,12
2023-04-28T05:59:46.826Z,9
2023-04-28T06:00:46.794Z,11
2023-04-28T06:01:46.797Z,8
2023-04-28T06:02:47.013Z,9
2023-04-28T06:03:47.075Z,9
2023-04-28T06:05:47.015Z,8
2023-04-28T06:06:46.806Z,13
2023-04-28T06:07:48.330Z,10
2023-04-28T06:08:46.817Z,8
2023-04-28T06:09:46.796Z,8
2023-04-28T06:10:46.807Z,9
2023-04-28T06:11:46.835Z,8
2023-04-28T06:12:46.806Z,8
2023-04-28T06:13:46.797Z,10
2023-04-28T06:14:46.815Z,11
2023-04-28T06:15:46.824Z,9
2023-04-28T06:16:46.803Z,9
2023-04-28T06:17:46.853Z,9
2023-04-28T06:18:48.446Z,10
2023-04-28T06:19:46.849Z,10
2023-04-28T06:20:46.804Z,10
2023-04-28T06:21:46.801Z,9
2023-04-28T06:22:46.834Z,11
2023-04-28T06:23:46.812Z,8
2023-04-28T06:24:46.813Z,10
2023-04-28T06:25:46.819Z,9
2023-04-28T06:26:46.801Z,9
2023-04-28T06:27:46.794Z,10
2023-04-28T06:28:46.829Z,8
2023-04-28T06:29:47.086Z,9
2023-04-28T06:30:46.796Z,12
2023-04-28T06:31:46.893Z,8
2023-04-28T06:32:46.901Z,10
2023-04-28T06:33:46.813Z,8
2023-04-28T06:34:46.810Z,9
2023-04-28T06:35:46.825Z,10
2023-04-28T06:36:46.844Z,11
2023-04-28T06:37:46.825Z,10
2023-04-28T06:38:46.824Z,10
2023-04-28T06:39:46.805Z,8
2023-04-28T06:40:46.801Z,10
2023-04-28T06:41:46.808Z,9
2023-04-28T06:42:46.822Z,9
2023-04-28T06:43:46.804Z,9
2023-04-28T06:44:46.817Z,9
2023-04-28T06:45:46.820Z,11
2023-04-28T06:46:46.853Z,10
2023-04-28T06:47:46.912Z,10
2023-04-28T06:48:46.799Z,11
2023-04-28T06:49:46.832Z,9
2023-04-28T06:50:46.811Z,9
2023-04-28T06:51:46.832Z,8
2023-04-28T06:52:46.826Z,7
2023-04-28T06:53:46.867Z,9
2023-04-28T06:54:46.819Z,8
2023-04-28T06:55:46.807Z,8
2023-04-28T06:56:46.818Z,9
2023-04-28T06:57:46.842Z,10
2023-04-28T06:58:46.804Z,10
2023-04-28T06:59:46.818Z,10
2023-04-28T07:00:46.821Z,9
2023-04-28T07:01:46.843Z,10
2023-04-28T07:02:46.868Z,11
2023-04-28T07:03:46.912Z,9
2023-04-28T07:04:46.859Z,9
2023-04-28T07:05:46.803Z,10
2023-04-28T07:06:46.822Z,10
2023-04-28T07:07:46.838Z,9
2023-04-28T07:08:46.892Z,11
2023-04-28T07:09:46.816Z,10
2023-04-28T07:10:46.805Z,8
2023-04-28T07:11:46.812Z,10
2023-04-28T07:12:46.816Z,9
2023-04-28T07:13:46.980Z,7
2023-04-28T07:14:47.139Z,7
2023-04-28T07:15:46.817Z,8
2023-04-28T07:16:46.828Z,9
2023-04-28T07:17:46.841Z,10
2023-04-28T07:18:46.812Z,8
2023-04-28T07:19:46.845Z,8
2023-04-28T07:20:46.819Z,9
2023-04-28T07:21:46.821Z,8
2023-04-28T07:22:46.822Z,9
2023-04-28T07:23:46.803Z,9
2023-04-28T07:24:46.822Z,7
2023-04-28T07:25:46.808Z,7
2023-04-28T07:26:46.809Z,10
2023-04-28T07:27:46.892Z,8
2023-04-28T07:28:46.797Z,10
2023-04-28T07:29:46.864Z,8
2023-04-28T07:30:46.828Z,8
2023-04-28T07:31:46.852Z,8
2023-04-28T07:32:46.852Z,7
2023-04-28T07:33:46.837Z,9
2023-04-28T07:34:46.851Z,8
2023-04-28T07:35:46.810Z,7
2023-04-28T07:36:46.801Z,9
2023-04-28T07:37:46.827Z,8
2023-04-28T07:38:46.843Z,7
2023-04-28T07:39:46.831Z,8
2023-04-28T07:40:46.820Z,7
2023-04-28T07:41:46.814Z,8
2023-04-28T07:42:46.836Z,8
2023-04-28T07:43:46.849Z,8
2023-04-28T07:44:46.838Z,7
2023-04-28T07:45:46.871Z,8
2023-04-28T07:46:46.844Z,6
2023-04-28T07:47:46.839Z,8
2023-04-28T07:48:46.801Z,7
2023-04-28T07:49:46.828Z,6
2023-04-28T07:50:46.839Z,8
2023-04-28T07:51:46.800Z,9
2023-04-28T07:52:46.842Z,8
2023-04-28T07:53:46.816Z,7
2023-04-28T07:54:46.830Z,9
2023-04-28T07:55:46.818Z,7
2023-04-28T07:56:46.822Z,8
2023-04-28T07:57:46.863Z,8
2023-04-28T07:58:46.841Z,8
2023-04-28T07:59:46.861Z,7
2023-04-28T08:00:46.818Z,7
2023-04-28T08:01:46.814Z,7
2023-04-28T08:02:47.028Z,7
2023-04-28T08:03:47.005Z,10
2023-04-28T08:04:47.042Z,8
2023-04-28T08:05:46.882Z,8
2023-04-28T08:06:46.813Z,7
2023-04-28T08:07:46.838Z,6
2023-04-28T08:08:46.836Z,8
2023-04-28T08:09:46.835Z,8
2023-04-28T08:10:46.829Z,9
2023-04-28T08:11:46.808Z,6
2023-04-28T08:12:46.822Z,6
2023-04-28T08:13:46.807Z,6
2023-04-28T08:14:46.824Z,6
2023-04-28T08:15:46.845Z,10
2023-04-28T08:16:46.821Z,8
2023-04-28T08:17:46.879Z,6
2023-04-28T08:18:46.848Z,7
2023-04-28T08:19:46.881Z,9
2023-04-28T08:20:46.811Z,7
2023-04-28T08:21:46.822Z,7
2023-04-28T08:22:46.860Z,6
2023-04-28T08:23:46.817Z,6
2023-04-28T08:24:46.818Z,9
2023-04-28T08:25:46.814Z,7
2023-04-28T08:26:46.908Z,8
2023-04-28T08:27:47.014Z,8
2023-04-28T08:28:47.162Z,8
2023-04-28T08:29:46.833Z,6
2023-04-28T08:30:46.813Z,7
2023-04-28T08:31:46.846Z,6
2023-04-28T08:32:46.810Z,9
2023-04-28T08:33:46.819Z,7
2023-04-28T08:34:46.837Z,6
2023-04-28T08:35:46.811Z,8
2023-04-28T08:36:46.808Z,7
2023-04-28T08:37:46.819Z,7
2023-04-28T08:38:46.822Z,8
2023-04-28T08:39:46.834Z,6
2023-04-28T08:40:46.790Z,7
2023-04-28T08:41:46.820Z,8
2023-04-28T08:42:46.829Z,8
2023-04-28T08:43:46.810Z,7
2023-04-28T08:44:46.834Z,6
2023-04-28T08:46:46.962Z,5
2023-04-28T08:47:46.826Z,6
2023-04-28T08:48:46.832Z,6
2023-04-28T08:49:46.829Z,9
2023-04-28T08:50:46.805Z,10
2023-04-28T08:51:46.815Z,7
2023-04-28T08:52:46.851Z,6
2023-04-28T08:54:11.845Z,7
2023-04-28T08:54:46.798Z,5
2023-04-28T08:55:46.813Z,8
2023-04-28T08:56:46.828Z,7
2023-04-28T08:57:46.818Z,6
2023-04-28T08:58:46.826Z,8
2023-04-28T08:59:46.856Z,7
2023-04-28T09:00:46.817Z,6
2023-04-28T09:01:46.867Z,6
2023-04-28T09:02:46.918Z,6
2023-04-28T09:03:46.982Z,6
2023-04-28T09:04:46.988Z,6
2023-04-28T09:05:47.048Z,5
2023-04-28T09:06:46.840Z,6
2023-04-28T09:07:46.903Z,5
2023-04-28T09:08:46.825Z,5
2023-04-28T09:09:46.820Z,7
2023-04-28T09:10:46.813Z,6
2023-04-28T09:11:46.834Z,5
2023-04-28T09:12:46.852Z,5
2023-04-28T09:13:46.814Z,6
2023-04-28T09:14:46.811Z,5
2023-04-28T09:15:46.821Z,6
2023-04-28T09:16:46.938Z,5
2023-04-28T09:17:46.872Z,6
2023-04-28T09:18:46.829Z,6
2023-04-28T09:19:46.833Z,5
2023-04-28T09:20:46.822Z,4
2023-04-28T09:21:46.818Z,4
2023-04-28T09:22:46.897Z,5
2023-04-28T09:23:46.828Z,7
2023-04-28T09:24:46.831Z,6
2023-04-28T09:25:46.819Z,6
2023-04-28T09:26:46.840Z,7
2023-04-28T09:27:46.825Z,6
2023-04-28T09:28:46.825Z,8
2023-04-28T09:29:46.827Z,7
2023-04-28T09:30:46.837Z,6
2023-04-28T09:31:46.874Z,7
2023-04-28T09:32:46.846Z,7
2023-04-28T09:33:46.830Z,7
2023-04-28T09:34:46.866Z,7
2023-04-28T09:35:46.846Z,9
2023-04-28T09:36:46.843Z,6
2023-04-28T09:37:46.874Z,7
2023-04-28T09:38:46.848Z,8
2023-04-28T09:39:46.867Z,7
2023-04-28T09:41:46.875Z,8
2023-04-28T09:42:46.926Z,7
2023-04-28T09:43:46.836Z,7
2023-04-28T09:44:46.851Z,8
2023-04-28T09:45:46.861Z,6
2023-04-28T09:46:46.832Z,7
2023-04-28T09:47:47.080Z,7
2023-04-28T09:48:46.834Z,6
2023-04-28T09:49:46.910Z,8
2023-04-28T09:50:46.962Z,7
2023-04-28T09:51:47.074Z,8
2023-04-28T09:52:47.226Z,8
2023-04-28T09:53:46.937Z,8
2023-04-28T09:54:46.840Z,6
2023-04-28T09:55:46.860Z,7
2023-04-28T09:56:46.857Z,8
2023-04-28T09:57:49.339Z,8
2023-04-28T09:58:46.836Z,7
2023-04-28T09:59:46.845Z,6
2023-04-28T10:00:46.831Z,8
2023-04-28T10:01:47.112Z,8
2023-04-28T10:02:47.038Z,7
2023-04-28T10:03:46.943Z,6
2023-04-28T10:04:47.096Z,8
2023-04-28T10:05:46.998Z,7
2023-04-28T10:11:46.823Z,7
2023-04-28T10:12:46.847Z,7
2023-04-28T10:13:46.840Z,7
2023-04-28T10:14:46.849Z,7
2023-04-28T10:15:49.375Z,9
2023-04-28T10:16:46.846Z,6
2023-04-28T10:17:46.901Z,7
2023-04-28T10:18:46.847Z,7
2023-04-28T10:19:46.880Z,8
2023-04-28T10:20:46.850Z,9
2023-04-28T10:22:46.886Z,7
2023-04-28T10:23:46.874Z,9
2023-04-28T10:24:46.865Z,8
2023-04-28T10:25:46.833Z,6
2023-04-28T10:26:46.833Z,8
2023-04-28T10:27:46.871Z,7
2023-04-28T10:28:46.848Z,9
2023-04-28T10:29:46.846Z,8
2023-04-28T10:30:46.838Z,7
2023-04-28T10:31:47.003Z,7
2023-04-28T10:32:46.883Z,9
2023-04-28T10:33:46.826Z,7
2023-04-28T10:34:46.862Z,7
2023-04-28T10:35:46.835Z,6
2023-04-28T10:36:46.874Z,8
2023-04-28T10:37:46.846Z,7
2023-04-28T10:38:46.852Z,8
2023-04-28T10:39:46.876Z,8
2023-04-28T10:40:46.867Z,8
2023-04-28T10:41:46.863Z,8
2023-04-28T10:42:46.848Z,7
2023-04-28T10:43:46.857Z,6
2023-04-28T10:44:46.942Z,8
2023-04-28T10:45:46.969Z,8
2023-04-28T10:46:46.887Z,9
2023-04-28T10:47:46.909Z,8
2023-04-28T10:48:46.878Z,7
2023-04-28T10:49:46.852Z,7
2023-04-28T10:50:46.931Z,7
2023-04-28T10:51:46.855Z,9
2023-04-28T10:52:46.854Z,8
2023-04-28T10:53:47.564Z,8
2023-04-28T10:54:46.873Z,7
2023-04-28T10:55:46.865Z,8
2023-04-28T10:56:46.890Z,8
2023-04-28T10:57:46.899Z,7
2023-04-28T10:58:46.857Z,7
2023-04-28T10:59:46.855Z,8
2023-04-28T11:00:46.837Z,6
2023-04-28T11:01:46.924Z,8
2023-04-28T11:02:47.090Z,9
2023-04-28T11:03:47.214Z,9
2023-04-28T11:05:46.847Z,9
2023-04-28T11:06:46.870Z,8
2023-04-28T11:07:46.870Z,8
2023-04-28T11:08:46.944Z,8
2023-04-28T11:09:46.854Z,7
2023-04-28T11:10:46.869Z,11
2023-04-28T11:11:46.873Z,10
2023-04-28T11:12:46.864Z,11
2023-04-28T11:13:46.845Z,10
2023-04-28T11:14:46.880Z,10
2023-04-28T11:15:46.852Z,9
2023-04-28T11:16:46.864Z,8
2023-04-28T11:17:46.883Z,8
2023-04-28T11:18:46.865Z,8
2023-04-28T11:19:46.868Z,9
2023-04-28T11:20:46.847Z,9
2023-04-28T11:21:46.834Z,8
2023-04-28T11:22:46.851Z,9
2023-04-28T11:23:46.874Z,8
2023-04-28T11:24:46.846Z,7
2023-04-28T11:25:46.846Z,11
2023-04-28T11:26:46.887Z,8
2023-04-28T11:27:46.864Z,9
2023-04-28T11:28:46.856Z,9
2023-04-28T11:29:46.874Z,10
2023-04-28T11:30:46.861Z,9
2023-04-28T11:31:46.855Z,10
2023-04-28T11:32:46.857Z,8
2023-04-28T11:33:46.860Z,8
2023-04-28T11:34:46.862Z,8
2023-04-28T11:35:46.851Z,8
2023-04-28T11:36:46.886Z,10
2023-04-28T11:37:46.853Z,9
2023-04-28T11:38:46.869Z,10
2023-04-28T11:39:46.860Z,9
2023-04-28T11:40:46.855Z,8
2023-04-28T11:41:46.840Z,10
2023-04-28T11:42:46.859Z,9
2023-04-28T11:43:47.838Z,9
2023-04-28T11:44:46.938Z,8
2023-04-28T11:45:46.896Z,7
2023-04-28T11:46:46.853Z,7
2023-04-28T11:47:46.931Z,7
2023-04-28T11:48:46.873Z,7
2023-04-28T11:49:46.881Z,7
2023-04-28T11:50:46.845Z,10
2023-04-28T11:51:46.890Z,8
2023-04-28T11:52:46.861Z,8
2023-04-28T11:53:46.853Z,8
2023-04-28T11:54:46.927Z,6
2023-04-28T11:55:46.866Z,7
2023-04-28T11:56:46.872Z,7
2023-04-28T11:57:46.870Z,6
2023-04-28T11:58:46.871Z,7
2023-04-28T11:59:47.091Z,5
2023-04-28T12:00:46.845Z,6
2023-04-28T12:01:46.904Z,6
2023-04-28T12:02:46.975Z,6
2023-04-28T12:03:46.981Z,7
2023-04-28T12:04:46.877Z,6
2023-04-28T12:05:46.880Z,5
2023-04-28T12:06:46.891Z,5
2023-04-28T12:07:46.860Z,6
2023-04-28T12:08:46.897Z,5
2023-04-28T12:09:46.878Z,7
2023-04-28T12:10:46.877Z,6
2023-04-28T12:11:46.873Z,6
2023-04-28T12:12:52.024Z,6
2023-04-28T12:14:46.865Z,5
2023-04-28T12:15:46.903Z,6
2023-04-28T12:16:46.882Z,4
2023-04-28T12:17:46.879Z,6
2023-04-28T12:19:46.883Z,7
2023-04-28T12:20:46.854Z,5
2023-04-28T12:21:46.850Z,5
2023-04-28T12:22:46.969Z,6
2023-04-28T12:23:46.904Z,5
2023-04-28T12:24:46.860Z,5
2023-04-28T12:25:46.873Z,5
2023-04-28T12:26:46.857Z,5
2023-04-28T12:27:46.871Z,5
2023-04-28T12:28:46.869Z,5
2023-04-28T12:29:47.274Z,5
2023-04-28T12:30:46.862Z,4
2023-04-28T12:31:46.915Z,5
2023-04-28T12:32:46.941Z,5
2023-04-28T12:33:46.904Z,5
2023-04-28T12:34:46.900Z,5
2023-04-28T12:35:46.881Z,5
2023-04-28T12:36:46.871Z,5
2023-04-28T12:37:46.882Z,6
2023-04-28T12:38:46.914Z,6
2023-04-28T12:39:47.142Z,6
2023-04-28T12:40:46.933Z,5
2023-04-28T12:41:46.883Z,7
2023-04-28T12:42:46.883Z,7
2023-04-28T12:43:46.894Z,7
2023-04-28T12:44:46.867Z,5
2023-04-28T12:45:46.906Z,4
2023-04-28T12:46:46.880Z,6
2023-04-28T12:47:46.891Z,6
2023-04-28T12:48:46.907Z,5
2023-04-28T12:49:46.947Z,5
2023-04-28T12:50:46.883Z,4
2023-04-28T12:51:46.881Z,5
2023-04-28T12:52:46.908Z,5
2023-04-28T12:53:46.918Z,4
2023-04-28T12:55:46.924Z,4
2023-04-28T12:56:46.886Z,4
2023-04-28T12:57:46.888Z,5
2023-04-28T12:58:46.905Z,4
2023-04-28T12:59:46.893Z,6
2023-04-28T13:00:46.877Z,4
2023-04-28T13:01:47.005Z,5
2023-04-28T13:02:47.005Z,4
2023-04-28T13:03:47.021Z,5
2023-04-28T13:04:46.974Z,5
2023-04-28T13:05:46.868Z,5
2023-04-28T13:06:46.891Z,5
2023-04-28T13:07:46.896Z,5
2023-04-28T13:08:46.932Z,4
2023-04-28T13:09:47.428Z,4
2023-04-28T13:10:46.888Z,4
2023-04-28T13:11:46.925Z,5
2023-04-28T13:12:46.886Z,6
2023-04-28T13:13:46.915Z,5
2023-04-28T13:14:46.896Z,6
2023-04-28T13:15:46.909Z,5
2023-04-28T13:16:46.916Z,4
2023-04-28T13:17:46.928Z,5
2023-04-28T13:18:46.918Z,4
2023-04-28T13:19:47.132Z,5
2023-04-28T13:20:46.882Z,4
2023-04-28T13:21:46.999Z,5
2023-04-28T13:22:46.907Z,4
2023-04-28T13:23:46.896Z,5
2023-04-28T13:24:47.238Z,6
2023-04-28T13:25:46.890Z,6
2023-04-28T13:26:46.908Z,5
2023-04-28T13:27:46.875Z,6
2023-04-28T13:28:46.896Z,4
2023-04-28T13:29:46.901Z,4
2023-04-28T13:30:46.896Z,4
2023-04-28T13:31:46.951Z,5
2023-04-28T13:32:46.927Z,4
2023-04-28T13:34:47.505Z,3
2023-04-28T13:35:46.916Z,5
2023-04-28T13:36:46.891Z,5
2023-04-28T13:37:46.960Z,5
2023-04-28T13:38:46.913Z,6
2023-04-28T13:39:46.906Z,4
2023-04-28T13:40:46.892Z,4
2023-04-28T13:41:46.904Z,4
2023-04-28T13:42:46.908Z,4
2023-04-28T13:43:46.890Z,5
2023-04-28T13:44:47.263Z,5
2023-04-28T13:45:46.967Z,4
2023-04-28T13:46:46.893Z,5
2023-04-28T13:47:46.901Z,6
2023-04-28T13:48:46.897Z,4
2023-04-28T13:49:46.906Z,5
2023-04-28T13:50:46.895Z,5
2023-04-28T13:51:46.903Z,5
2023-04-28T13:52:46.911Z,5
2023-04-28T13:53:46.924Z,4
2023-04-28T13:54:47.124Z,4
2023-04-28T13:55:48.863Z,4
2023-04-28T13:56:46.883Z,4
2023-04-28T13:57:46.905Z,4
2023-04-28T13:58:46.891Z,4
2023-04-28T13:59:46.894Z,5
2023-04-28T14:00:46.954Z,4
2023-04-28T14:01:46.943Z,4
2023-04-28T14:02:46.923Z,4
2023-04-28T14:03:47.048Z,5
2023-04-28T14:04:47.365Z,5
2023-04-28T14:05:49.675Z,4
2023-04-28T14:06:46.892Z,4
2023-04-28T14:07:46.895Z,5
2023-04-28T14:08:46.970Z,4
2023-04-28T14:09:47.313Z,3
2023-04-28T14:11:46.916Z,5
2023-04-28T14:12:46.894Z,4
2023-04-28T14:13:46.934Z,5
2023-04-28T14:14:47.193Z,4
2023-04-28T14:15:57.812Z,4
2023-04-28T14:16:46.932Z,4
2023-04-28T14:17:46.944Z,3
2023-04-28T14:18:46.907Z,3
2023-04-28T14:19:46.903Z,4
2023-04-28T14:20:46.890Z,4
2023-04-28T14:21:46.898Z,3
2023-04-28T14:22:46.898Z,3
2023-04-28T14:23:46.899Z,4
2023-04-28T14:24:47.107Z,3
2023-04-28T14:25:46.900Z,4
2023-04-28T14:26:46.893Z,3
2023-04-28T14:27:46.887Z,4
2023-04-28T14:28:46.890Z,5
2023-04-28T14:29:46.911Z,4
2023-04-28T14:30:46.898Z,4
2023-04-28T14:31:46.958Z,4
2023-04-28T14:32:46.975Z,4
2023-04-28T14:33:46.896Z,4
2023-04-28T14:34:47.157Z,4
2023-04-28T14:35:46.914Z,3
2023-04-28T14:36:46.920Z,3
2023-04-28T14:37:46.986Z,3
2023-04-28T14:38:46.927Z,3
2023-04-28T14:39:46.911Z,3
2023-04-28T14:40:46.904Z,4
2023-04-28T14:41:46.904Z,4
2023-04-28T14:42:46.906Z,4
2023-04-28T14:43:46.922Z,3
2023-04-28T14:44:47.144Z,3
2023-04-28T14:45:46.919Z,3
2023-04-28T14:46:47.249Z,3
2023-04-28T14:47:47.043Z,3
2023-04-28T14:48:46.902Z,4
2023-04-28T14:49:46.901Z,3
2023-04-28T14:50:46.899Z,3
2023-04-28T14:51:46.955Z,5
2023-04-28T14:52:46.915Z,4
2023-04-28T14:53:46.942Z,3
2023-04-28T14:54:47.163Z,3
2023-04-28T14:55:46.895Z,3
2023-04-28T14:56:46.900Z,5
2023-04-28T14:57:46.919Z,3
2023-04-28T14:58:46.926Z,2
2023-04-28T14:59:46.909Z,3
2023-04-28T15:00:46.912Z,3
2023-04-28T15:01:47.103Z,2
2023-04-28T15:02:47.089Z,5
2023-04-28T15:03:46.987Z,3
2023-04-28T15:04:47.291Z,3
2023-04-28T15:05:46.915Z,4
2023-04-28T15:06:46.910Z,3
2023-04-28T15:07:46.953Z,3